Latest Weather Observations for Friendly Beaches

IDT60801

Issued at 9:31 pm EDT Saturday 28 March 2015 (issued every 30 minutes, with the page automatically refreshed every 10 minutes)

About weather observations | Map of weather stations | Latest weather observations for TAS | Other Formats
Station Details ID: 092114 Name: FRIENDLY BEACHES Lat: -42.00 Lon: 148.28 Height: 55.0 m
Data from the previous 72 hours. | See also: Recent months at Friendly Beaches
Date/Time
EDT
Temp
°C
App
Temp
°C
Dew
Point
Rel
Hum
%
Delta-T
°C
Wind Press
QNH
hPa
Press
MSL
hPa
Rain
since 9 am
mm
Dir
 
Spd
km/h
Gust
km/h
Spd
kts
Gust
kts
28/09:30pm 11.7 10.4 9.8 88 1.0 WNW 7 7 4 4 1017.9 1017.9 0.0
28/09:00pm 11.8 10.4 9.5 86 1.2 WNW 7 7 4 4 1018.0 1018.0 0.0
28/08:30pm 12.8 11.7 10.5 86 1.2 ESE 7 9 4 5 1018.0 1018.0 0.0
28/08:00pm 12.9 11.8 10.1 83 1.4 E 6 7 3 4 1018.0 1018.0 0.0
28/07:30pm 13.2 12.1 9.8 80 1.7 ENE 6 9 3 5 1018.1 1018.1 0.0
28/07:00pm 13.9 12.5 9.5 75 2.3 ENE 7 11 4 6 1018.0 1018.0 0.0
28/06:30pm 15.1 13.7 9.5 69 2.9 NE 7 11 4 6 1018.1 1018.1 0.0
28/06:00pm 16.1 14.3 9.3 64 3.5 NE 9 15 5 8 1018.0 1018.0 0.0
28/05:30pm 16.7 14.6 9.6 63 3.7 NE 11 19 6 10 1018.1 1018.1 0.0
28/05:00pm 17.1 14.5 9.3 60 4.1 NE 13 19 7 10 1018.3 1018.3 0.0
28/04:30pm 17.3 14.5 8.7 57 4.4 NE 13 20 7 11 1018.5 1018.5 0.0
28/04:00pm 17.4 14.8 9.3 59 4.2 ENE 13 20 7 11 1018.7 1018.7 0.0
28/03:30pm 17.6 14.9 9.0 57 4.5 ENE 13 19 7 10 1018.9 1018.9 0.0
28/03:00pm 17.8 15.6 9.4 58 4.4 ENE 11 17 6 9 1019.2 1019.2 0.0
28/02:30pm 18.1 15.7 10.0 59 4.3 ENE 13 19 7 10 1019.4 1019.4 0.0
28/02:00pm 17.8 15.1 8.9 56 4.6 E 13 19 7 10 1019.7 1019.7 0.0
28/01:30pm 18.0 15.5 9.6 58 4.4 E 13 19 7 10 1020.1 1020.0 0.0
28/01:00pm 17.7 15.0 9.1 57 4.5 E 13 20 7 11 1020.3 1020.2 0.0
28/12:30pm 17.1 15.0 8.3 56 4.5 SE 9 15 5 8 1020.4 1020.3 0.0
28/12:00pm 16.4 14.4 7.3 55 4.5 WSW 7 13 4 7 1020.7 1020.6 0.0
28/11:30am 16.0 14.2 7.2 56 4.4 SW 6 11 3 6 1021.0 1020.9 0.0
28/11:00am 15.4 13.4 6.9 57 4.2 WSW 7 19 4 10 1021.2 1021.1 0.0
28/10:30am 14.7 12.8 7.7 63 3.5 W 7 13 4 7 1021.4 1021.3 0.0
28/10:00am 13.8 11.9 7.6 66 3.0 WSW 7 13 4 7 1021.7 1021.6 0.0
28/09:30am 12.9 11.3 8.0 72 2.4 W 6 11 3 6 1021.5 1021.4 0.0
28/09:00am 11.6 9.1 6.7 72 2.3 W 9 13 5 7 1021.6 1021.5 3.6
28/08:30am 10.6 8.1 6.7 77 1.8 WNW 9 11 5 6 1021.4 1021.3 3.6
28/08:00am 9.4 7.3 6.7 83 1.3 WNW 7 9 4 5 1021.3 1021.2 3.6
28/07:30am 9.1 6.5 6.2 82 1.3 W 9 13 5 7 1021.0 1020.9 3.6
28/07:00am 9.5 6.9 6.2 80 1.5 WSW 9 15 5 8 1020.7 1020.6 3.6
28/06:30am 9.7 6.4 6.4 80 1.5 W 13 19 7 10 1020.4 1020.3 3.6
28/06:00am 9.3 6.9 7.1 86 1.0 W 9 13 5 7 1020.3 1020.2 3.6
28/05:30am 9.7 7.7 7.3 85 1.1 W 7 13 4 7 1020.0 1019.9 3.6
28/05:00am 10.0 7.4 7.6 85 1.1 W 11 15 6 8 1019.6 1019.6 3.6
28/04:30am 10.3 8.1 7.9 85 1.2 W 9 13 5 7 1019.4 1019.4 3.6
28/04:00am 10.8 8.3 8.0 83 1.4 WSW 11 15 6 8 1019.3 1019.3 3.6
28/03:30am 11.3 9.4 8.9 85 1.2 W 9 13 5 7 1019.4 1019.4 3.6
28/03:00am 11.7 8.6 8.7 82 1.5 WSW 15 22 8 12 1019.6 1019.6 3.6
28/02:30am 11.9 9.5 8.7 81 1.6 WSW 11 17 6 9 1019.4 1019.4 3.6
28/02:00am 12.3 9.2 8.8 79 1.7 SW 15 24 8 13 1019.7 1019.7 3.6
28/01:30am 12.2 9.4 8.7 79 1.7 SW 13 19 7 10 1019.6 1019.6 3.6
28/01:00am 12.2 8.7 8.9 80 1.6 WSW 17 26 9 14 1019.5 1019.5 3.6
28/12:30am 11.7 9.0 8.9 83 1.4 WSW 13 20 7 11 1019.2 1019.2 3.6
28/12:00am 11.8 8.4 9.0 83 1.4 SW 17 26 9 14 1018.9 1018.9 3.6
 
Date/Time
EDT
Temp
°C
App
Temp
°C
Dew
Point
Rel
Hum
%
Delta-T
°C
Wind Press
QNH
hPa
Press
MSL
hPa
Rain
since 9 am
mm
Dir
 
Spd
km/h
Gust
km/h
Spd
kts
Gust
kts
27/11:30pm 11.6 7.8 9.2 85 1.2 SW 19 30 10 16 1018.7 1018.7 3.6
27/11:00pm 11.6 7.8 9.0 84 1.3 WSW 19 30 10 16 1018.8 1018.8 3.6
27/10:30pm 11.5 8.5 9.1 85 1.2 WSW 15 22 8 12 1018.6 1018.6 3.6
27/10:00pm 11.4 7.7 9.3 87 1.1 WSW 19 28 10 15 1018.4 1018.4 3.6
27/09:30pm 11.5 8.4 10.2 92 0.7 SW 17 28 9 15 1018.1 1018.1 3.6
27/09:00pm 11.9 8.0 10.8 93 0.6 SW 22 37 12 20 1017.8 1017.8 3.4
27/08:30pm 12.8 9.3 10.2 84 1.3 SW 19 30 10 16 1017.3 1017.2 2.8
27/08:00pm 12.7 9.0 10.2 85 1.3 SW 20 32 11 17 1016.9 1016.8 2.8
27/07:30pm 13.7 9.5 9.6 76 2.1 SW 22 37 12 20 1016.2 1016.1 2.8
27/07:00pm 13.8 9.9 9.5 75 2.2 SW 20 32 11 17 1015.8 1015.7 2.8
27/06:30pm 14.3 10.4 9.5 73 2.5 SW 20 35 11 19 1015.2 1015.1 2.8
27/06:00pm 14.9 10.9 10.3 74 2.4 SSW 22 39 12 21 1014.6 1014.5 2.8
27/05:30pm 15.6 11.6 10.6 72 2.7 SSW 22 44 12 24 1014.1 1014.0 2.8
27/05:00pm 15.4 12.2 11.4 77 2.2 SSW 19 35 10 19 1013.8 1013.7 2.8
27/04:30pm 13.4 9.8 10.4 82 1.6 SSW 20 33 11 18 1013.4 1013.3 2.8
27/04:00pm 14.8 11.5 11.6 81 1.7 SSW 20 33 11 18 1013.0 1012.9 2.8
27/03:30pm 12.7 8.6 11.3 91 0.7 SW 24 43 13 23 1012.5 1012.4 2.8
27/03:00pm 13.0 8.7 10.9 87 1.1 SSW 24 43 13 23 1011.9 1011.8 2.6
27/02:30pm 15.5 12.1 11.1 75 2.4 SW 20 39 11 21 1011.7 1011.6 1.4
27/02:00pm 14.2 10.8 10.6 79 1.9 SW 19 33 10 18 1011.8 1011.7 1.4
27/01:30pm 13.7 12.2 11.9 89 1.0 WSW 11 20 6 11 1012.0 1011.9 1.4
27/01:00pm 12.5 10.5 10.0 85 1.3 WSW 11 20 6 11 1012.1 1012.0 1.4
27/12:30pm 11.0 9.3 9.9 93 0.6 WSW 9 17 5 9 1012.0 1011.9 1.4
27/12:00pm 10.2 7.6 9.3 94 0.4 W 13 19 7 10 1011.9 1011.8 1.2
27/11:30am 9.4 6.1 8.2 92 0.6 W 15 24 8 13 1011.7 1011.6 1.2
27/11:00am 10.1 7.6 8.0 87 1.0 W 11 17 6 9 1011.7 1011.6 0.0
27/10:30am 10.1 7.0 7.2 82 1.4 WSW 13 19 7 10 1011.4 1011.3 0.0
27/10:00am 10.5 5.8 6.1 74 2.1 WSW 20 35 11 19 1011.1 1011.0 0.0
27/09:30am 11.3 6.1 5.6 68 2.6 WSW 22 37 12 20 1010.4 1010.3 0.0
27/09:00am 12.5 9.1 6.1 65 3.0 WSW 13 22 7 12 1010.5 1010.4 0.4
27/08:30am 10.9 7.6 6.3 73 2.2 SW 13 22 7 12 1010.3 1010.2 0.4
27/08:00am 8.6 4.7 5.4 80 1.4 WSW 15 22 8 12 1010.2 1010.1 0.4
27/07:30am 7.5 4.3 5.1 85 1.1 WNW 11 17 6 9 1010.0 1009.9 0.4
27/07:00am 7.2 3.6 5.2 87 0.9 W 13 19 7 10 1009.6 1009.5 0.4
27/06:30am 7.2 3.6 5.2 87 0.9 W 13 17 7 9 1009.4 1009.3 0.4
27/06:00am 7.3 3.8 5.4 88 0.8 WNW 13 17 7 9 1009.3 1009.2 0.4
27/05:30am 7.7 4.6 5.5 86 1.0 WNW 11 15 6 8 1009.2 1009.1 0.4
27/05:00am 7.9 4.8 5.7 86 1.0 W 11 15 6 8 1009.3 1009.2 0.4
27/04:30am 7.4 4.3 5.4 87 0.9 WNW 11 15 6 8 1009.2 1009.1 0.4
27/04:00am 7.7 4.6 5.5 86 1.0 WNW 11 13 6 7 1009.3 1009.2 0.4
27/03:30am 7.7 4.7 6.0 89 0.8 W 11 13 6 7 1009.4 1009.3 0.4
27/03:00am 7.9 4.9 6.2 89 0.8 W 11 13 6 7 1009.5 1009.4 0.4
27/02:30am 8.2 5.6 6.2 87 0.9 W 9 13 5 7 1009.9 1009.8 0.4
27/02:00am 8.7 6.0 5.8 82 1.3 WNW 9 13 5 7 1010.3 1010.2 0.4
27/01:30am 8.9 6.6 4.9 76 1.8 WNW 6 6 3 3 1010.1 1010.0 0.4
27/01:00am 9.3 7.1 5.1 75 1.9 SW 6 6 3 3 1010.4 1010.3 0.4
27/12:30am 9.2 6.7 4.8 74 2.0 NNW 7 13 4 7 1010.6 1010.5 0.4
27/12:00am 9.2 7.7 5.0 75 1.9 NNW 2 6 1 3 1010.7 1010.6 0.4
 
Date/Time
EDT
Temp
°C
App
Temp
°C
Dew
Point
Rel
Hum
%
Delta-T
°C
Wind Press
QNH
hPa
Press
MSL
hPa
Rain
since 9 am
mm
Dir
 
Spd
km/h
Gust
km/h
Spd
kts
Gust
kts
26/11:30pm 10.0 7.6 5.4 73 2.1 NW 7 11 4 6 1010.9 1010.8 0.4
26/11:00pm 10.7 8.0 5.5 70 2.4 W 9 13 5 7 1010.9 1010.8 0.4
26/10:30pm 10.9 8.3 5.9 71 2.3 WNW 9 15 5 8 1011.3 1011.2 0.4
26/10:00pm 10.4 8.1 5.8 73 2.1 WNW 7 13 4 7 1011.3 1011.2 0.4
26/09:30pm 11.0 8.4 6.2 72 2.2 W 9 15 5 8 1011.3 1011.2 0.4
26/09:00pm 11.2 8.2 6.1 71 2.4 W 11 17 6 9 1011.2 1011.1 0.4
26/08:30pm 11.5 8.0 5.6 67 2.7 WNW 13 17 7 9 1011.0 1010.9 0.4
26/08:00pm 12.0 8.2 5.9 66 2.9 WNW 15 22 8 12 1010.8 1010.7 0.4
26/07:30pm 12.4 9.0 6.0 65 3.0 WNW 13 17 7 9 1010.6 1010.5 0.4
26/07:00pm 13.4 10.0 6.0 61 3.5 WNW 13 26 7 14 1010.2 1010.1 0.4
26/06:30pm 14.0 11.0 5.9 58 3.9 WNW 11 19 6 10 1009.9 1009.8 0.4
26/06:00pm 15.5 13.6 6.5 55 4.4 NW 6 17 3 9 1009.7 1009.6 0.4
26/05:30pm 15.1 14.0 9.9 71 2.7 N 6 7 3 4 1009.5 1009.4 0.4
26/05:00pm 16.2 15.1 9.8 66 3.4 NE 6 9 3 5 1009.4 1009.3 0.4
26/04:30pm 17.0 15.9 10.1 64 3.7 NNE 6 9 3 5 1009.6 1009.5 0.4
26/04:00pm 14.8 14.0 9.8 72 2.6 NW 4 7 2 4 1009.7 1009.6 0.4
26/03:30pm 14.7 14.1 10.3 75 2.3 NNW 4 7 2 4 1009.6 1009.5 0.4
26/03:00pm 14.9 13.7 10.3 74 2.4 S 7 13 4 7 1010.4 1010.3 0.4
26/02:30pm 14.8 13.6 10.2 74 2.4 ESE 7 11 4 6 1010.5 1010.4 0.4
26/02:00pm 14.8 13.7 9.8 72 2.6 SE 6 9 3 5 1010.7 1010.6 0.4
26/01:30pm 15.8 14.1 9.7 67 3.2 ESE 9 13 5 7 1010.7 1010.6 0.4
26/01:00pm 15.9 13.8 9.6 66 3.3 E 11 15 6 8 1011.3 1011.2 0.4
26/12:30pm 16.5 15.3 9.7 64 3.6 ENE 6 9 3 5 1011.5 1011.4 0.4
26/12:00pm 14.4 13.4 9.0 70 2.8 W 4 9 2 5 1011.8 1011.7 0.4
26/11:30am 13.9 12.5 9.5 75 2.3 WSW 7 13 4 7 1011.8 1011.7 0.4
26/11:00am 14.0 12.0 10.0 77 2.1 WNW 11 19 6 10 1011.8 1011.7 0.4
26/10:30am 12.8 12.4 11.2 90 0.8 NNW 4 15 2 8 1011.9 1011.8 0.4
26/10:00am 12.1 12.7 11.8 98 0.2 CALM 0 2 0 1 1011.9 1011.8 0.4
26/09:30am 11.1 10.2 10.6 97 0.3 NE 6 7 3 4 1011.8 1011.7 0.4
26/09:00am 10.2 8.8 9.7 97 0.3 NE 7 11 4 6 1011.7 1011.6 33.0
26/08:30am 9.9 9.0 9.3 96 0.3 SW 4 6 2 3 1010.7 1010.6 32.4
26/08:00am 9.7 8.2 9.1 96 0.3 WNW 7 13 4 7 1010.8 1010.7 31.0
26/07:30am 10.0 7.7 9.1 94 0.4 WSW 11 20 6 11 1011.4 1011.3 21.2
26/07:00am 11.5 8.6 9.8 89 0.9 NNW 15 44 8 24 1010.8 1010.7 6.0
26/06:36am 14.2 9.7 13.7 97 0.3 ENE 30 50 16 27 1009.9 1009.8 4.8
26/06:30am 13.8 12.0 13.3 97 0.3 NE 15 39 8 21 1010.3 1010.2 4.4
26/06:00am 11.0 7.5 8.8 86 1.1 NE 17 28 9 15 1011.0 1010.9 2.0
26/05:30am 12.9 11.7 11.6 92 0.7 NE 9 17 5 9 1011.7 1011.6 0.4
26/05:00am 12.4 10.3 9.8 84 1.3 NNE 11 19 6 10 1012.1 1012.0 0.0
26/04:30am 11.8 9.5 7.5 75 2.1 NNE 9 13 5 7 1012.5 1012.4 0.0
26/04:00am 12.2 11.2 7.3 72 2.4 NE 2 6 1 3 1013.2 1013.1 0.0
26/03:30am 12.2 10.3 6.7 69 2.6 NNE 6 9 3 5 1013.6 1013.5 0.0
26/03:00am 12.6 9.3 6.2 65 3.0 NNW 13 20 7 11 1013.8 1013.7 0.0
26/02:30am 12.1 8.7 5.9 66 2.9 NNW 13 20 7 11 1013.9 1013.8 0.0
26/02:00am 11.1 8.1 6.0 71 2.4 NNW 11 19 6 10 1014.6 1014.5 0.0
26/01:30am 8.9 7.0 7.5 91 0.7 NNW 7 9 4 5 1014.5 1014.4 0.0
26/01:00am 9.4 8.6 8.2 92 0.6 NW 2 4 1 2 1014.5 1014.4 0.0
26/12:30am 10.0 8.6 7.1 82 1.4 NW 4 7 2 4 1014.5 1014.4 0.0
26/12:00am 10.7 9.0 8.5 86 1.1 NW 7 9 4 5 1014.6 1014.5 0.0
 
Date/Time
EDT
Temp
°C
App
Temp
°C
Dew
Point
Rel
Hum
%
Delta-T
°C
Wind Press
QNH
hPa
Press
MSL
hPa
Rain
since 9 am
mm
Dir
 
Spd
km/h
Gust
km/h
Spd
kts
Gust
kts
25/11:30pm 10.7 9.3 8.8 88 0.9 N 6 7 3 4 1014.7 1014.6 0.0
25/11:00pm 11.0 9.4 8.8 86 1.1 NW 7 7 4 4 1014.7 1014.6 0.0
25/10:30pm 11.6 10.6 9.0 84 1.3 N 4 4 2 2 1014.7 1014.6 0.0
25/10:00pm 11.9 10.6 9.1 83 1.4 NNE 6 6 3 3 1014.7 1014.6 0.0

Other Formats:

Comma delimited format used in spreadsheet applications
http://www.bom.gov.au/fwo/IDT60801/IDT60801.94987.axf

JavaScript Object Notation format (JSON) in row-major order
http://www.bom.gov.au/fwo/IDT60801/IDT60801.94987.json